sensor_id;sensor_type;location;lat;lon;timestamp;pressure;altitude;pressure_sealevel;temperature;humidity
72118;BME280;59992;47.490;8.736;2023-02-15T00:01:52;97960.73;;;-0.07;92.66
72118;BME280;59992;47.490;8.736;2023-02-15T00:04:22;97959.66;;;-0.02;92.35
72118;BME280;59992;47.490;8.736;2023-02-15T00:06:51;97958.04;;;0.01;91.94
72118;BME280;59992;47.490;8.736;2023-02-15T00:09:19;97956.27;;;0.01;91.53
72118;BME280;59992;47.490;8.736;2023-02-15T00:11:47;97947.30;;;0.03;91.30
72118;BME280;59992;47.490;8.736;2023-02-15T00:14:19;97945.64;;;0.01;91.08
72118;BME280;59992;47.490;8.736;2023-02-15T00:16:52;97945.52;;;-0.03;90.97
72118;BME280;59992;47.490;8.736;2023-02-15T00:19:22;97945.77;;;-0.06;91.38
72118;BME280;59992;47.490;8.736;2023-02-15T00:21:50;97946.35;;;-0.07;91.97
72118;BME280;59992;47.490;8.736;2023-02-15T00:24:19;97947.23;;;-0.08;91.74
72118;BME280;59992;47.490;8.736;2023-02-15T00:26:47;97945.25;;;-0.07;91.23
72118;BME280;59992;47.490;8.736;2023-02-15T00:29:18;97944.61;;;-0.12;90.83
72118;BME280;59992;47.490;8.736;2023-02-15T00:31:47;97950.28;;;-0.22;90.83
72118;BME280;59992;47.490;8.736;2023-02-15T00:34:16;97946.98;;;-0.28;90.91
72118;BME280;59992;47.490;8.736;2023-02-15T00:36:44;97942.89;;;-0.36;91.58
72118;BME280;59992;47.490;8.736;2023-02-15T00:39:12;97948.45;;;-0.41;91.45
72118;BME280;59992;47.490;8.736;2023-02-15T00:41:39;97952.27;;;-0.50;91.94
72118;BME280;59992;47.490;8.736;2023-02-15T00:44:07;97951.95;;;-0.51;91.80
72118;BME280;59992;47.490;8.736;2023-02-15T00:46:35;97953.15;;;-0.53;91.57
72118;BME280;59992;47.490;8.736;2023-02-15T00:49:04;97953.79;;;-0.60;92.42
72118;BME280;59992;47.490;8.736;2023-02-15T00:51:32;97959.66;;;-0.60;92.87
72118;BME280;59992;47.490;8.736;2023-02-15T00:53:59;97943.08;;;-0.67;93.05
72118;BME280;59992;47.490;8.736;2023-02-15T00:56:26;97956.52;;;-0.67;93.01
72118;BME280;59992;47.490;8.736;2023-02-15T00:58:55;97956.39;;;-0.63;92.59
72118;BME280;59992;47.490;8.736;2023-02-15T01:01:23;97952.79;;;-0.66;92.33
72118;BME280;59992;47.490;8.736;2023-02-15T01:03:52;97953.45;;;-0.66;92.32
72118;BME280;59992;47.490;8.736;2023-02-15T01:06:20;97952.98;;;-0.77;92.91
72118;BME280;59992;47.490;8.736;2023-02-15T01:08:48;97950.13;;;-0.74;94.02
72118;BME280;59992;47.490;8.736;2023-02-15T01:11:18;97950.07;;;-0.68;94.36
72118;BME280;59992;47.490;8.736;2023-02-15T01:13:48;97948.10;;;-0.64;93.95
72118;BME280;59992;47.490;8.736;2023-02-15T01:16:16;97947.52;;;-0.63;92.69
72118;BME280;59992;47.490;8.736;2023-02-15T01:18:44;97945.07;;;-0.69;92.13
72118;BME280;59992;47.490;8.736;2023-02-15T01:21:15;97947.54;;;-0.85;92.35
72118;BME280;59992;47.490;8.736;2023-02-15T01:23:44;97946.81;;;-0.85;92.55
72118;BME280;59992;47.490;8.736;2023-02-15T01:26:12;97947.37;;;-0.84;92.61
72118;BME280;59992;47.490;8.736;2023-02-15T01:28:40;97944.41;;;-0.86;92.22
72118;BME280;59992;47.490;8.736;2023-02-15T01:31:09;97951.60;;;-0.85;92.34
72118;BME280;59992;47.490;8.736;2023-02-15T01:33:38;97948.59;;;-0.84;92.41
72118;BME280;59992;47.490;8.736;2023-02-15T01:36:06;97950.55;;;-0.83;92.11
72118;BME280;59992;47.490;8.736;2023-02-15T01:38:35;97946.86;;;-0.84;91.55
72118;BME280;59992;47.490;8.736;2023-02-15T01:41:02;97944.30;;;-0.89;91.36
72118;BME280;59992;47.490;8.736;2023-02-15T01:43:51;97940.64;;;-0.91;91.30
72118;BME280;59992;47.490;8.736;2023-02-15T01:46:23;97937.91;;;-0.93;91.13
72118;BME280;59992;47.490;8.736;2023-02-15T01:48:58;97935.83;;;-0.95;90.96
72118;BME280;59992;47.490;8.736;2023-02-15T01:51:28;97934.86;;;-0.99;90.64
72118;BME280;59992;47.490;8.736;2023-02-15T01:54:00;97933.39;;;-1.04;90.47
72118;BME280;59992;47.490;8.736;2023-02-15T01:56:32;97931.33;;;-1.09;90.54
72118;BME280;59992;47.490;8.736;2023-02-15T01:59:04;97927.81;;;-1.12;90.50
72118;BME280;59992;47.490;8.736;2023-02-15T02:01:33;97930.23;;;-1.17;90.42
72118;BME280;59992;47.490;8.736;2023-02-15T02:04:04;97927.81;;;-1.23;90.33
72118;BME280;59992;47.490;8.736;2023-02-15T02:06:36;97915.37;;;-1.33;90.37
72118;BME280;59992;47.490;8.736;2023-02-15T02:09:05;97924.52;;;-1.32;90.26
72118;BME280;59992;47.490;8.736;2023-02-15T02:11:33;97923.45;;;-1.37;90.25
72118;BME280;59992;47.490;8.736;2023-02-15T02:14:01;97929.69;;;-1.37;90.26
72118;BME280;59992;47.490;8.736;2023-02-15T02:16:34;97928.18;;;-1.37;90.32
72118;BME280;59992;47.490;8.736;2023-02-15T02:19:26;97925.49;;;-1.43;90.81
72118;BME280;59992;47.490;8.736;2023-02-15T02:25:24;97916.66;;;-1.44;90.73
72118;BME280;59992;47.490;8.736;2023-02-15T02:28:07;97913.70;;;-1.43;90.86
72118;BME280;59992;47.490;8.736;2023-02-15T02:30:50;97915.35;;;-1.42;90.93
72118;BME280;59992;47.490;8.736;2023-02-15T02:33:49;97917.33;;;-1.45;91.72
72118;BME280;59992;47.490;8.736;2023-02-15T02:36:25;97919.07;;;-1.46;92.32
72118;BME280;59992;47.490;8.736;2023-02-15T02:39:14;97921.31;;;-1.47;92.59
72118;BME280;59992;47.490;8.736;2023-02-15T02:41:52;97920.71;;;-1.43;91.98
72118;BME280;59992;47.490;8.736;2023-02-15T02:44:25;97917.38;;;-1.43;91.65
72118;BME280;59992;47.490;8.736;2023-02-15T02:46:56;97916.29;;;-1.43;91.30
72118;BME280;59992;47.490;8.736;2023-02-15T02:49:32;97918.63;;;-1.50;91.75
72118;BME280;59992;47.490;8.736;2023-02-15T02:52:01;97917.29;;;-1.49;92.09
72118;BME280;59992;47.490;8.736;2023-02-15T02:54:30;97916.17;;;-1.43;92.45
72118;BME280;59992;47.490;8.736;2023-02-15T02:57:01;97916.80;;;-1.36;92.36
72118;BME280;59992;47.490;8.736;2023-02-15T02:59:33;97918.55;;;-1.31;92.00
72118;BME280;59992;47.490;8.736;2023-02-15T03:02:04;97918.21;;;-1.25;91.66
72118;BME280;59992;47.490;8.736;2023-02-15T03:04:36;97917.99;;;-1.20;91.26
72118;BME280;59992;47.490;8.736;2023-02-15T03:07:07;97920.73;;;-1.15;90.97
72118;BME280;59992;47.490;8.736;2023-02-15T03:09:37;97919.37;;;-1.18;90.70
72118;BME280;59992;47.490;8.736;2023-02-15T03:12:09;97921.29;;;-1.19;90.41
72118;BME280;59992;47.490;8.736;2023-02-15T03:14:38;97926.44;;;-1.18;90.46
72118;BME280;59992;47.490;8.736;2023-02-15T03:17:08;97926.06;;;-1.20;90.40
72118;BME280;59992;47.490;8.736;2023-02-15T03:19:37;97921.38;;;-1.20;90.39
72118;BME280;59992;47.490;8.736;2023-02-15T03:22:07;97921.48;;;-1.19;90.55
72118;BME280;59992;47.490;8.736;2023-02-15T03:24:39;97921.60;;;-1.17;90.84
72118;BME280;59992;47.490;8.736;2023-02-15T03:27:11;97920.97;;;-1.19;90.33
72118;BME280;59992;47.490;8.736;2023-02-15T03:29:40;97921.83;;;-1.23;90.66
72118;BME280;59992;47.490;8.736;2023-02-15T03:32:09;97918.41;;;-1.20;90.76
72118;BME280;59992;47.490;8.736;2023-02-15T03:34:38;97919.20;;;-1.18;90.84
72118;BME280;59992;47.490;8.736;2023-02-15T03:37:10;97920.83;;;-1.14;90.49
72118;BME280;59992;47.490;8.736;2023-02-15T03:39:45;97921.30;;;-1.14;90.94
72118;BME280;59992;47.490;8.736;2023-02-15T03:42:18;97923.12;;;-1.15;90.61
72118;BME280;59992;47.490;8.736;2023-02-15T03:44:56;97923.80;;;-1.15;90.24
72118;BME280;59992;47.490;8.736;2023-02-15T03:47:26;97925.86;;;-1.19;90.26
72118;BME280;59992;47.490;8.736;2023-02-15T03:49:59;97921.19;;;-1.18;90.96
72118;BME280;59992;47.490;8.736;2023-02-15T03:52:30;97919.98;;;-1.19;90.32
72118;BME280;59992;47.490;8.736;2023-02-15T03:54:59;97922.59;;;-1.33;90.73
72118;BME280;59992;47.490;8.736;2023-02-15T03:57:28;97927.33;;;-1.33;91.86
72118;BME280;59992;47.490;8.736;2023-02-15T04:00:16;97926.73;;;-1.29;91.90
72118;BME280;59992;47.490;8.736;2023-02-15T04:03:23;97928.82;;;-1.27;91.56
72118;BME280;59992;47.490;8.736;2023-02-15T04:05:54;97931.66;;;-1.33;90.88
72118;BME280;59992;47.490;8.736;2023-02-15T04:08:22;97934.30;;;-1.32;90.84
72118;BME280;59992;47.490;8.736;2023-02-15T04:11:11;97933.52;;;-1.35;91.13
72118;BME280;59992;47.490;8.736;2023-02-15T04:13:39;97929.68;;;-1.30;91.48
72118;BME280;59992;47.490;8.736;2023-02-15T04:16:06;97926.60;;;-1.25;91.08
72118;BME280;59992;47.490;8.736;2023-02-15T04:18:35;97926.88;;;-1.22;90.61
72118;BME280;59992;47.490;8.736;2023-02-15T04:21:22;97922.79;;;-1.28;90.20
72118;BME280;59992;47.490;8.736;2023-02-15T04:24:09;97921.05;;;-1.32;90.43
72118;BME280;59992;47.490;8.736;2023-02-15T04:26:56;97925.15;;;-1.31;90.79
72118;BME280;59992;47.490;8.736;2023-02-15T04:29:24;97930.42;;;-1.29;91.23
72118;BME280;59992;47.490;8.736;2023-02-15T04:31:54;97929.39;;;-1.27;90.99
72118;BME280;59992;47.490;8.736;2023-02-15T04:34:22;97923.92;;;-1.28;91.54
72118;BME280;59992;47.490;8.736;2023-02-15T04:36:50;97925.14;;;-1.25;91.33
72118;BME280;59992;47.490;8.736;2023-02-15T04:39:18;97924.14;;;-1.19;90.95
72118;BME280;59992;47.490;8.736;2023-02-15T04:41:47;97922.64;;;-1.17;90.46
72118;BME280;59992;47.490;8.736;2023-02-15T04:44:15;97924.00;;;-1.17;90.11
72118;BME280;59992;47.490;8.736;2023-02-15T04:46:42;97923.73;;;-1.26;89.90
72118;BME280;59992;47.490;8.736;2023-02-15T04:49:09;97925.55;;;-1.26;90.02
72118;BME280;59992;47.490;8.736;2023-02-15T04:51:37;97919.94;;;-1.33;89.86
72118;BME280;59992;47.490;8.736;2023-02-15T04:54:05;97919.45;;;-1.51;91.18
72118;BME280;59992;47.490;8.736;2023-02-15T04:56:32;97915.33;;;-1.55;91.99
72118;BME280;59992;47.490;8.736;2023-02-15T04:59:01;97923.06;;;-1.48;91.80
72118;BME280;59992;47.490;8.736;2023-02-15T05:01:28;97917.83;;;-1.54;91.85
72118;BME280;59992;47.490;8.736;2023-02-15T05:03:55;97921.92;;;-1.47;90.89
72118;BME280;59992;47.490;8.736;2023-02-15T05:06:23;97922.21;;;-1.50;90.78
72118;BME280;59992;47.490;8.736;2023-02-15T05:08:51;97922.57;;;-1.65;91.63
72118;BME280;59992;47.490;8.736;2023-02-15T05:11:18;97919.09;;;-1.66;92.04
72118;BME280;59992;47.490;8.736;2023-02-15T05:13:46;97920.17;;;-1.67;92.06
72118;BME280;59992;47.490;8.736;2023-02-15T05:16:16;97921.60;;;-1.62;91.72
72118;BME280;59992;47.490;8.736;2023-02-15T05:18:44;97921.25;;;-1.61;91.23
72118;BME280;59992;47.490;8.736;2023-02-15T05:21:11;97917.92;;;-1.62;90.76
72118;BME280;59992;47.490;8.736;2023-02-15T05:23:40;97919.02;;;-1.67;91.04
72118;BME280;59992;47.490;8.736;2023-02-15T05:26:09;97915.10;;;-1.71;90.74
72118;BME280;59992;47.490;8.736;2023-02-15T05:29:11;97913.15;;;-1.74;90.54
72118;BME280;59992;47.490;8.736;2023-02-15T05:31:39;97911.82;;;-1.77;90.39
72118;BME280;59992;47.490;8.736;2023-02-15T05:34:07;97910.32;;;-1.84;91.33
72118;BME280;59992;47.490;8.736;2023-02-15T05:36:35;97912.91;;;-1.85;91.55
72118;BME280;59992;47.490;8.736;2023-02-15T05:39:02;97917.86;;;-1.83;91.11
72118;BME280;59992;47.490;8.736;2023-02-15T05:41:32;97916.38;;;-1.80;90.82
72118;BME280;59992;47.490;8.736;2023-02-15T05:44:00;97907.30;;;-1.89;90.68
72118;BME280;59992;47.490;8.736;2023-02-15T05:46:28;97917.71;;;-1.83;90.43
72118;BME280;59992;47.490;8.736;2023-02-15T05:48:55;97920.27;;;-1.86;91.62
72118;BME280;59992;47.490;8.736;2023-02-15T05:51:23;97923.31;;;-1.83;91.35
72118;BME280;59992;47.490;8.736;2023-02-15T05:53:50;97920.02;;;-1.98;91.03
72118;BME280;59992;47.490;8.736;2023-02-15T05:56:18;97923.82;;;-1.97;91.83
72118;BME280;59992;47.490;8.736;2023-02-15T05:58:45;97927.21;;;-1.97;91.72
72118;BME280;59992;47.490;8.736;2023-02-15T06:01:15;97925.26;;;-1.92;91.27
72118;BME280;59992;47.490;8.736;2023-02-15T06:03:44;97933.94;;;-1.92;90.69
72118;BME280;59992;47.490;8.736;2023-02-15T06:06:12;97929.78;;;-1.92;90.17
72118;BME280;59992;47.490;8.736;2023-02-15T06:08:40;97931.48;;;-1.92;90.24
72118;BME280;59992;47.490;8.736;2023-02-15T06:11:08;97936.81;;;-1.95;90.29
72118;BME280;59992;47.490;8.736;2023-02-15T06:13:36;97935.30;;;-2.02;91.08
72118;BME280;59992;47.490;8.736;2023-02-15T06:16:04;97938.09;;;-2.04;91.01
72118;BME280;59992;47.490;8.736;2023-02-15T06:18:31;97938.88;;;-2.04;90.90
72118;BME280;59992;47.490;8.736;2023-02-15T06:20:59;97940.39;;;-2.08;90.37
72118;BME280;59992;47.490;8.736;2023-02-15T06:23:26;97941.41;;;-2.15;91.32
72118;BME280;59992;47.490;8.736;2023-02-15T06:25:54;97945.85;;;-2.12;92.15
72118;BME280;59992;47.490;8.736;2023-02-15T06:28:22;97951.58;;;-2.06;91.27
72118;BME280;59992;47.490;8.736;2023-02-15T06:30:49;97954.23;;;-2.07;90.74
72118;BME280;59992;47.490;8.736;2023-02-15T06:33:17;97953.36;;;-2.14;90.37
72118;BME280;59992;47.490;8.736;2023-02-15T06:35:46;97955.30;;;-2.13;90.31
72118;BME280;59992;47.490;8.736;2023-02-15T06:38:14;97956.83;;;-2.12;90.42
72118;BME280;59992;47.490;8.736;2023-02-15T06:40:41;97957.55;;;-2.11;90.25
72118;BME280;59992;47.490;8.736;2023-02-15T06:43:09;97959.70;;;-2.10;90.23
72118;BME280;59992;47.490;8.736;2023-02-15T06:45:37;97964.16;;;-2.11;90.23
72118;BME280;59992;47.490;8.736;2023-02-15T06:48:05;97962.98;;;-2.13;90.05
72118;BME280;59992;47.490;8.736;2023-02-15T06:50:33;97964.78;;;-2.21;91.03
72118;BME280;59992;47.490;8.736;2023-02-15T06:53:01;97964.60;;;-2.23;91.08
72118;BME280;59992;47.490;8.736;2023-02-15T06:55:28;97960.96;;;-2.33;91.14
72118;BME280;59992;47.490;8.736;2023-02-15T06:57:56;97964.37;;;-2.25;92.09
72118;BME280;59992;47.490;8.736;2023-02-15T07:00:27;97956.34;;;-2.43;91.33
72118;BME280;59992;47.490;8.736;2023-02-15T07:02:54;97966.67;;;-2.42;91.51
72118;BME280;59992;47.490;8.736;2023-02-15T07:05:23;97968.09;;;-2.54;92.02
72118;BME280;59992;47.490;8.736;2023-02-15T07:07:51;97968.91;;;-2.51;92.37
72118;BME280;59992;47.490;8.736;2023-02-15T07:10:18;97968.82;;;-2.55;92.02
72118;BME280;59992;47.490;8.736;2023-02-15T07:12:45;97969.73;;;-2.52;91.91
72118;BME280;59992;47.490;8.736;2023-02-15T07:15:28;97969.52;;;-2.52;92.36
72118;BME280;59992;47.490;8.736;2023-02-15T07:17:58;97969.55;;;-2.41;92.13
72118;BME280;59992;47.490;8.736;2023-02-15T07:20:26;97963.83;;;-2.36;91.47
72118;BME280;59992;47.490;8.736;2023-02-15T07:22:53;97960.34;;;-2.46;91.46
72118;BME280;59992;47.490;8.736;2023-02-15T07:25:21;97954.52;;;-2.47;91.99
72118;BME280;59992;47.490;8.736;2023-02-15T07:27:55;97953.04;;;-2.49;91.74
72118;BME280;59992;47.490;8.736;2023-02-15T07:30:23;97955.23;;;-2.43;91.17
72118;BME280;59992;47.490;8.736;2023-02-15T07:32:51;97956.23;;;-2.39;91.51
72118;BME280;59992;47.490;8.736;2023-02-15T07:35:47;97954.23;;;-2.31;91.07
72118;BME280;59992;47.490;8.736;2023-02-15T07:38:15;97953.78;;;-2.34;90.95
72118;BME280;59992;47.490;8.736;2023-02-15T07:40:43;97956.17;;;-2.26;91.73
72118;BME280;59992;47.490;8.736;2023-02-15T07:43:12;97958.04;;;-2.19;91.18
72118;BME280;59992;47.490;8.736;2023-02-15T07:45:39;97958.23;;;-2.15;89.95
72118;BME280;59992;47.490;8.736;2023-02-15T07:48:07;97953.58;;;-2.09;90.03
72118;BME280;59992;47.490;8.736;2023-02-15T07:50:35;97953.10;;;-2.05;90.40
72118;BME280;59992;47.490;8.736;2023-02-15T07:53:03;97949.14;;;-2.03;90.32
72118;BME280;59992;47.490;8.736;2023-02-15T07:55:37;97955.27;;;-1.90;89.92
72118;BME280;59992;47.490;8.736;2023-02-15T07:58:04;97954.98;;;-1.80;89.31
72118;BME280;59992;47.490;8.736;2023-02-15T08:00:32;97957.87;;;-1.72;89.11
72118;BME280;59992;47.490;8.736;2023-02-15T08:03:20;97957.11;;;-1.56;89.32
72118;BME280;59992;47.490;8.736;2023-02-15T08:05:49;97958.60;;;-1.44;88.77
72118;BME280;59992;47.490;8.736;2023-02-15T08:08:17;97949.15;;;-1.36;88.24
72118;BME280;59992;47.490;8.736;2023-02-15T08:10:59;97945.36;;;-1.19;88.05
72118;BME280;59992;47.490;8.736;2023-02-15T08:13:49;97943.95;;;-1.04;87.14
72118;BME280;59992;47.490;8.736;2023-02-15T08:16:26;97946.91;;;-0.86;86.88
72118;BME280;59992;47.490;8.736;2023-02-15T08:18:55;97949.04;;;-0.76;86.03
72118;BME280;59992;47.490;8.736;2023-02-15T08:21:24;97949.19;;;-0.79;85.32
72118;BME280;59992;47.490;8.736;2023-02-15T08:23:52;97952.61;;;-0.66;85.84
72118;BME280;59992;47.490;8.736;2023-02-15T08:26:20;97946.05;;;-0.57;84.89
72118;BME280;59992;47.490;8.736;2023-02-15T08:28:48;97944.15;;;-0.49;84.85
72118;BME280;59992;47.490;8.736;2023-02-15T08:31:15;97939.80;;;-0.42;84.73
72118;BME280;59992;47.490;8.736;2023-02-15T08:33:45;97937.23;;;-0.30;84.42
72118;BME280;59992;47.490;8.736;2023-02-15T08:36:16;97935.77;;;-0.25;83.91
72118;BME280;59992;47.490;8.736;2023-02-15T08:38:44;97936.48;;;-0.15;84.29
72118;BME280;59992;47.490;8.736;2023-02-15T08:41:17;97935.70;;;-0.10;83.31
72118;BME280;59992;47.490;8.736;2023-02-15T08:43:47;97935.56;;;-0.05;83.39
72118;BME280;59992;47.490;8.736;2023-02-15T08:46:16;97932.55;;;-0.03;82.86
72118;BME280;59992;47.490;8.736;2023-02-15T08:48:44;97935.81;;;-0.08;82.07
72118;BME280;59992;47.490;8.736;2023-02-15T08:51:13;97935.81;;;-0.07;82.58
72118;BME280;59992;47.490;8.736;2023-02-15T08:53:46;97935.67;;;0.04;83.91
72118;BME280;59992;47.490;8.736;2023-02-15T08:56:16;97935.48;;;0.10;83.96
72118;BME280;59992;47.490;8.736;2023-02-15T08:58:44;97936.83;;;0.13;81.73
72118;BME280;59992;47.490;8.736;2023-02-15T09:01:13;97935.95;;;0.22;82.52
72118;BME280;59992;47.490;8.736;2023-02-15T09:03:45;97934.86;;;0.24;81.68
72118;BME280;59992;47.490;8.736;2023-02-15T09:06:13;97925.38;;;0.13;81.75
72118;BME280;59992;47.490;8.736;2023-02-15T09:08:41;97936.44;;;0.26;81.22
72118;BME280;59992;47.490;8.736;2023-02-15T09:11:11;97930.27;;;0.19;81.47
72118;BME280;59992;47.490;8.736;2023-02-15T09:13:40;97921.82;;;0.12;82.21
72118;BME280;59992;47.490;8.736;2023-02-15T09:16:10;97927.09;;;0.30;82.46
72118;BME280;59992;47.490;8.736;2023-02-15T09:18:42;97927.32;;;0.38;80.82
72118;BME280;59992;47.490;8.736;2023-02-15T09:21:12;97929.45;;;0.28;81.02
72118;BME280;59992;47.490;8.736;2023-02-15T09:23:42;97928.25;;;0.33;81.50
72118;BME280;59992;47.490;8.736;2023-02-15T09:26:11;97934.04;;;0.40;82.18
72118;BME280;59992;47.490;8.736;2023-02-15T09:28:40;97927.58;;;0.54;83.19
72118;BME280;59992;47.490;8.736;2023-02-15T09:31:10;97924.17;;;0.57;81.86
72118;BME280;59992;47.490;8.736;2023-02-15T09:33:39;97920.23;;;0.75;82.64
72118;BME280;59992;47.490;8.736;2023-02-15T09:36:16;97920.61;;;0.92;82.09
72118;BME280;59992;47.490;8.736;2023-02-15T09:38:45;97913.16;;;1.13;81.91
72118;BME280;59992;47.490;8.736;2023-02-15T09:41:28;97904.20;;;1.21;81.33
72118;BME280;59992;47.490;8.736;2023-02-15T09:44:11;97905.05;;;1.30;80.09
72118;BME280;59992;47.490;8.736;2023-02-15T09:46:59;97905.02;;;1.36;79.19
72118;BME280;59992;47.490;8.736;2023-02-15T09:49:34;97907.52;;;1.39;78.98
72118;BME280;59992;47.490;8.736;2023-02-15T09:55:10;97907.59;;;1.46;79.45
72118;BME280;59992;47.490;8.736;2023-02-15T09:57:46;97908.10;;;1.56;79.92
72118;BME280;59992;47.490;8.736;2023-02-15T10:00:26;97911.27;;;1.61;79.79
72118;BME280;59992;47.490;8.736;2023-02-15T10:03:08;97908.91;;;1.64;79.81
72118;BME280;59992;47.490;8.736;2023-02-15T10:05:44;97905.47;;;1.89;80.22
72118;BME280;59992;47.490;8.736;2023-02-15T10:08:29;97907.00;;;2.04;79.30
72118;BME280;59992;47.490;8.736;2023-02-15T10:11:05;97906.55;;;2.09;78.48
72118;BME280;59992;47.490;8.736;2023-02-15T10:14:03;97903.42;;;2.20;77.63
72118;BME280;59992;47.490;8.736;2023-02-15T10:16:43;97904.14;;;2.28;77.31
72118;BME280;59992;47.490;8.736;2023-02-15T10:19:16;97903.58;;;2.28;77.78
72118;BME280;59992;47.490;8.736;2023-02-15T10:21:59;97897.84;;;2.26;77.72
72118;BME280;59992;47.490;8.736;2023-02-15T10:24:58;97890.61;;;2.19;78.07
72118;BME280;59992;47.490;8.736;2023-02-15T10:27:32;97888.09;;;2.14;78.31
72118;BME280;59992;47.490;8.736;2023-02-15T10:30:09;97888.42;;;2.04;78.47
72118;BME280;59992;47.490;8.736;2023-02-15T10:32:51;97880.79;;;2.12;79.28
72118;BME280;59992;47.490;8.736;2023-02-15T10:35:25;97883.01;;;2.07;79.31
72118;BME280;59992;47.490;8.736;2023-02-15T10:38:07;97882.17;;;2.16;79.22
72118;BME280;59992;47.490;8.736;2023-02-15T10:40:44;97876.39;;;2.20;79.06
72118;BME280;59992;47.490;8.736;2023-02-15T10:43:23;97875.40;;;2.24;79.03
72118;BME280;59992;47.490;8.736;2023-02-15T10:46:05;97868.36;;;2.35;78.61
72118;BME280;59992;47.490;8.736;2023-02-15T10:49:00;97863.74;;;2.42;78.15
72118;BME280;59992;47.490;8.736;2023-02-15T10:51:39;97859.22;;;2.49;78.34
72118;BME280;59992;47.490;8.736;2023-02-15T10:54:20;97850.30;;;2.51;79.49
72118;BME280;59992;47.490;8.736;2023-02-15T10:56:58;97850.11;;;2.44;80.33
72118;BME280;59992;47.490;8.736;2023-02-15T10:59:44;97843.22;;;2.54;78.81
72118;BME280;59992;47.490;8.736;2023-02-15T11:02:26;97840.79;;;2.71;79.36
72118;BME280;59992;47.490;8.736;2023-02-15T11:05:07;97838.69;;;2.91;79.73
72118;BME280;59992;47.490;8.736;2023-02-15T11:07:45;97834.61;;;3.07;79.50
72118;BME280;59992;47.490;8.736;2023-02-15T11:10:28;97832.46;;;3.16;80.21
72118;BME280;59992;47.490;8.736;2023-02-15T11:12:57;97827.89;;;3.21;79.51
72118;BME280;59992;47.490;8.736;2023-02-15T11:15:36;97822.02;;;3.31;78.44
72118;BME280;59992;47.490;8.736;2023-02-15T11:18:11;97813.27;;;3.45;78.63
72118;BME280;59992;47.490;8.736;2023-02-15T11:20:49;97808.52;;;3.54;77.25
72118;BME280;59992;47.490;8.736;2023-02-15T11:23:21;97806.08;;;3.60;77.21
72118;BME280;59992;47.490;8.736;2023-02-15T11:26:01;97805.30;;;3.57;76.20
72118;BME280;59992;47.490;8.736;2023-02-15T11:28:34;97800.27;;;3.55;75.96
72118;BME280;59992;47.490;8.736;2023-02-15T11:31:15;97796.67;;;3.68;76.37
72118;BME280;59992;47.490;8.736;2023-02-15T11:33:52;97795.30;;;3.83;77.34
72118;BME280;59992;47.490;8.736;2023-02-15T11:36:31;97787.16;;;3.95;76.00
72118;BME280;59992;47.490;8.736;2023-02-15T11:39:08;97780.90;;;4.07;76.79
72118;BME280;59992;47.490;8.736;2023-02-15T11:41:43;97771.05;;;4.06;77.00
72118;BME280;59992;47.490;8.736;2023-02-15T11:44:16;97779.51;;;4.09;74.82
72118;BME280;59992;47.490;8.736;2023-02-15T11:46:46;97777.08;;;4.07;75.72
72118;BME280;59992;47.490;8.736;2023-02-15T11:49:22;97776.45;;;4.07;75.37
72118;BME280;59992;47.490;8.736;2023-02-15T11:51:51;97775.88;;;4.06;76.23
72118;BME280;59992;47.490;8.736;2023-02-15T11:54:23;97774.33;;;4.09;76.79
72118;BME280;59992;47.490;8.736;2023-02-15T11:56:54;97767.52;;;4.17;76.48
72118;BME280;59992;47.490;8.736;2023-02-15T11:59:29;97767.02;;;4.18;76.38
72118;BME280;59992;47.490;8.736;2023-02-15T12:01:57;97764.86;;;4.15;76.50
72118;BME280;59992;47.490;8.736;2023-02-15T12:04:28;97761.46;;;4.14;77.00
72118;BME280;59992;47.490;8.736;2023-02-15T12:06:59;97765.46;;;4.14;76.63
72118;BME280;59992;47.490;8.736;2023-02-15T12:09:32;97762.98;;;4.12;77.05
72118;BME280;59992;47.490;8.736;2023-02-15T12:12:20;97759.55;;;4.19;76.76
72118;BME280;59992;47.490;8.736;2023-02-15T12:14:49;97751.38;;;4.24;76.49
72118;BME280;59992;47.490;8.736;2023-02-15T12:17:21;97746.66;;;4.29;76.65
72118;BME280;59992;47.490;8.736;2023-02-15T12:19:50;97747.56;;;4.35;75.86
72118;BME280;59992;47.490;8.736;2023-02-15T12:22:23;97743.24;;;4.33;75.77
72118;BME280;59992;47.490;8.736;2023-02-15T12:24:54;97741.85;;;4.41;76.94
72118;BME280;59992;47.490;8.736;2023-02-15T12:27:25;97731.26;;;4.55;76.91
72118;BME280;59992;47.490;8.736;2023-02-15T12:29:57;97731.48;;;4.66;76.58
72118;BME280;59992;47.490;8.736;2023-02-15T12:32:29;97728.32;;;4.71;76.29
72118;BME280;59992;47.490;8.736;2023-02-15T12:35:09;97724.86;;;4.83;76.11
72118;BME280;59992;47.490;8.736;2023-02-15T12:37:54;97715.98;;;4.88;76.43
72118;BME280;59992;47.490;8.736;2023-02-15T12:40:27;97722.23;;;5.01;74.94
72118;BME280;59992;47.490;8.736;2023-02-15T12:42:55;97718.46;;;5.05;74.93
72118;BME280;59992;47.490;8.736;2023-02-15T12:45:26;97718.08;;;5.15;74.83
72118;BME280;59992;47.490;8.736;2023-02-15T12:48:14;97718.86;;;5.27;74.28
72118;BME280;59992;47.490;8.736;2023-02-15T12:50:43;97717.93;;;5.35;74.39
72118;BME280;59992;47.490;8.736;2023-02-15T12:53:16;97714.20;;;5.45;75.66
72118;BME280;59992;47.490;8.736;2023-02-15T12:55:54;97713.43;;;5.55;75.75
72118;BME280;59992;47.490;8.736;2023-02-15T12:58:24;97707.66;;;5.57;73.63
72118;BME280;59992;47.490;8.736;2023-02-15T13:01:12;97703.86;;;5.62;74.85
72118;BME280;59992;47.490;8.736;2023-02-15T13:03:56;97699.43;;;5.66;74.73
72118;BME280;59992;47.490;8.736;2023-02-15T13:06:25;97699.09;;;5.65;73.40
72118;BME280;59992;47.490;8.736;2023-02-15T13:08:55;97693.31;;;5.69;74.02
72118;BME280;59992;47.490;8.736;2023-02-15T13:11:29;97689.21;;;5.74;75.21
72118;BME280;59992;47.490;8.736;2023-02-15T13:14:02;97687.38;;;5.79;74.47
72118;BME280;59992;47.490;8.736;2023-02-15T13:16:31;97682.52;;;5.78;73.04
72118;BME280;59992;47.490;8.736;2023-02-15T13:19:03;97679.39;;;5.86;75.07
72118;BME280;59992;47.490;8.736;2023-02-15T13:21:36;97678.23;;;5.94;73.73
72118;BME280;59992;47.490;8.736;2023-02-15T13:24:10;97674.27;;;6.01;74.42
72118;BME280;59992;47.490;8.736;2023-02-15T13:26:41;97672.38;;;6.09;74.30
72118;BME280;59992;47.490;8.736;2023-02-15T13:29:17;97671.83;;;6.16;73.32
72118;BME280;59992;47.490;8.736;2023-02-15T13:31:46;97666.77;;;6.25;72.49
72118;BME280;59992;47.490;8.736;2023-02-15T13:34:18;97661.22;;;6.30;73.16
72118;BME280;59992;47.490;8.736;2023-02-15T13:36:52;97660.20;;;6.36;73.05
72118;BME280;59992;47.490;8.736;2023-02-15T13:39:29;97659.86;;;6.46;74.62